Time;durP1;ratioP1;P1;durP2;ratioP2;P2;SDS_P1;SDS_P2;PMS_P1;PMS_P2;Temp;Humidity;BMP_temperature;BMP_pressure;BME280_temperature;BME280_humidity;BME280_pressure;Samples;Min_cycle;Max_cycle;Signal;HPM_P1;HPM_P2
2023/01/02 00:01:36;;;;;;;;;;;;;;;;;;6246314;23;19960;-72
2023/01/02 00:04:02;;;;;;;;;;;;;;;;;;6246340;23;19958;-72
2023/01/02 00:06:28;;;;;;;;;;;;;;;;;;6246931;23;19899;-69
2023/01/02 00:08:54;;;;;;;;;;;;;;;;;;6246595;23;19907;-69
2023/01/02 00:11:20;;;;;;;;;;;;;;;;;;6246243;23;20238;-72
2023/01/02 00:13:46;;;;;;;;;;;;;;;;;;6246921;23;19907;-71
2023/01/02 00:16:12;;;;;;;;;;;;;;;;;;6246920;23;19903;-72
2023/01/02 00:18:37;;;;;;;;;;;;;;;;;;6248470;23;20322;-70
2023/01/02 00:21:03;;;;;;;;;;;;;;;;;;6248406;23;19906;-72
2023/01/02 00:23:30;;;;;;;;;;;;;;;;;;6248035;23;19900;-73
2023/01/02 00:25:55;;;;;;;;;;;;;;;;;;6248077;23;19899;-70
2023/01/02 00:28:21;;;;;;;;;;;;;;;;;;6248042;23;20044;-70
2023/01/02 00:30:47;;;;;;;;;;;;;;;;;;6248009;23;19900;-70
2023/01/02 00:33:13;;;;;;;;;;;;;;;;;;6248285;23;19903;-69
2023/01/02 00:35:39;;;;;;;;;;;;;;;;;;6248187;23;19957;-70
2023/01/02 00:38:05;;;;;;;;;;;;;;;;;;6248624;23;19899;-70
2023/01/02 00:40:32;;;;;;;;;;;;;;;;;;6247890;23;20345;-72
2023/01/02 00:42:58;;;;;;;;;;;;;;;;;;6248310;23;19899;-70
2023/01/02 00:45:24;;;;;;;;;;;;;;;;;;6247805;23;20237;-70
2023/01/02 00:47:49;;;;;;;;;;;;;;;;;;6248150;23;19900;-70
2023/01/02 00:50:15;;;;;;;;;;;;;;;;;;6247797;23;19945;-72
2023/01/02 00:52:41;;;;;;;;;;;;;;;;;;6247823;23;19914;-69
2023/01/02 00:55:07;;;;;;;;;;;;;;;;;;6247953;22;19903;-72
2023/01/02 00:57:33;;;;;;;;;;;;;;;;;;6247812;22;19911;-69
2023/01/02 00:59:59;;;;;;;;;;;;;;;;;;6248103;23;19895;-72
2023/01/02 01:02:25;;;;;;;;;;;;;;;;;;6247665;23;19904;-69
2023/01/02 01:04:51;;;;;;;;;;;;;;;;;;6247676;23;19900;-69
2023/01/02 01:07:17;;;;;;;;;;;;;;;;;;6247965;23;19970;-70
2023/01/02 01:09:42;;;;;;;;;;;;;;;;;;6247666;23;19911;-72
2023/01/02 01:12:08;;;;;;;;;;;;;;;;;;6247991;23;19927;-69
2023/01/02 01:14:34;;;;;;;;;;;;;;;;;;6247865;23;20321;-71
2023/01/02 01:17:00;;;;;;;;;;;;;;;;;;6248234;23;19986;-73
2023/01/02 01:19:26;;;;;;;;;;;;;;;;;;6247519;23;20241;-72
2023/01/02 01:21:52;;;;;;;;;;;;;;;;;;6247472;23;19899;-71
2023/01/02 01:24:18;;;;;;;;;;;;;;;;;;6247811;23;19900;-70
2023/01/02 01:26:44;;;;;;;;;;;;;;;;;;6247452;23;19899;-71
2023/01/02 01:29:09;;;;;;;;;;;;;;;;;;6247481;23;19951;-72
2023/01/02 01:31:35;;;;;;;;;;;;;;;;;;6247422;23;20322;-72
2023/01/02 01:34:01;;;;;;;;;;;;;;;;;;6247383;23;19953;-70
2023/01/02 01:36:27;;;;;;;;;;;;;;;;;;6247623;23;20230;-68
2023/01/02 01:38:53;;;;;;;;;;;;;;;;;;6247338;23;19904;-68
2023/01/02 01:41:19;;;;;;;;;;;;;;;;;;6247671;23;19899;-72
2023/01/02 01:43:45;;;;;;;;;;;;;;;;;;6247268;23;19906;-71
2023/01/02 01:46:11;;;;;;;;;;;;;;;;;;6248011;23;20195;-73
2023/01/02 01:48:37;;;;;;;;;;;;;;;;;;6247246;23;20289;-71
2023/01/02 01:51:04;;;;;;;;;;;;;;;;;;6247578;23;19985;-70
2023/01/02 01:53:29;;;;;;;;;;;;;;;;;;6247274;23;19907;-70
2023/01/02 01:55:55;;;;;;;;;;;;;;;;;;6247328;22;19903;-73
2023/01/02 01:58:21;;;;;;;;;;;;;;;;;;6247613;23;19912;-75
2023/01/02 02:00:47;;;;;;;;;;;;;;;;;;6247083;23;20319;-69
2023/01/02 02:03:13;;;;;;;;;;;;;;;;;;6247063;23;19910;-70
2023/01/02 02:05:39;;;;;;;;;;;;;;;;;;6247445;23;19900;-70
2023/01/02 02:08:05;;;;;;;;;;;;;;;;;;6248079;23;19927;-70
2023/01/02 02:10:31;;;;;;;;;;;;;;;;;;6247049;23;20026;-71
2023/01/02 02:12:57;;;;;;;;;;;;;;;;;;6247021;23;20322;-69
2023/01/02 02:15:22;;;;;;;;;;;;;;;;;;6246875;23;19914;-70
2023/01/02 02:17:48;;;;;;;;;;;;;;;;;;6247282;23;20226;-72
2023/01/02 02:20:14;;;;;;;;;;;;;;;;;;6246958;23;19904;-75
2023/01/02 02:22:40;;;;;;;;;;;;;;;;;;6246945;23;19900;-71
2023/01/02 02:25:06;;;;;;;;;;;;;;;;;;6247551;23;19899;-71
2023/01/02 02:27:32;;;;;;;;;;;;;;;;;;6246862;23;19906;-71
2023/01/02 02:29:58;;;;;;;;;;;;;;;;;;6247510;23;20299;-70
2023/01/02 02:32:24;;;;;;;;;;;;;;;;;;6220032;23;19926;-70
2023/01/02 02:34:50;;;;;;;;;;;;;;;;;;6246680;23;20046;-72
2023/01/02 02:37:15;;;;;;;;;;;;;;;;;;6246778;23;19943;-72
2023/01/02 02:39:41;;;;;;;;;;;;;;;;;;6246656;23;19900;-68
2023/01/02 02:42:07;;;;;;;;;;;;;;;;;;6246751;23;19923;-70
2023/01/02 02:44:33;;;;;;;;;;;;;;;;;;6246740;23;19903;-70
2023/01/02 02:46:59;;;;;;;;;;;;;;;;;;6247109;23;19950;-73
2023/01/02 02:49:25;;;;;;;;;;;;;;;;;;6246680;23;19900;-69
2023/01/02 02:51:51;;;;;;;;;;;;;;;;;;6247373;23;19907;-72
2023/01/02 02:54:17;;;;;;;;;;;;;;;;;;6246641;23;19899;-72
2023/01/02 02:56:43;;;;;;;;;;;;;;;;;;6246832;22;20002;-71
2023/01/02 02:59:08;;;;;;;;;;;;;;;;;;6246452;22;19911;-69
2023/01/02 03:01:34;;;;;;;;;;;;;;;;;;6246940;23;19961;-70
2023/01/02 03:04:00;;;;;;;;;;;;;;;;;;6246923;23;19907;-73
2023/01/02 03:06:26;;;;;;;;;;;;;;;;;;6246581;23;19899;-73
2023/01/02 03:08:52;;;;;;;;;;;;;;;;;;6247270;23;19906;-68
2023/01/02 03:11:18;;;;;;;;;;;;;;;;;;6246824;23;19899;-71
2023/01/02 03:13:44;;;;;;;;;;;;;;;;;;6246516;23;19900;-71
2023/01/02 03:16:10;;;;;;;;;;;;;;;;;;6246707;23;19987;-69
2023/01/02 03:18:36;;;;;;;;;;;;;;;;;;6246473;23;19899;-69
2023/01/02 03:21:01;;;;;;;;;;;;;;;;;;6246493;23;19900;-71
2023/01/02 03:23:27;;;;;;;;;;;;;;;;;;6246804;23;19899;-73
2023/01/02 03:25:53;;;;;;;;;;;;;;;;;;6246799;23;19905;-72
2023/01/02 03:28:19;;;;;;;;;;;;;;;;;;6247141;23;19900;-73
2023/01/02 03:30:45;;;;;;;;;;;;;;;;;;6246403;23;19900;-69
2023/01/02 03:33:11;;;;;;;;;;;;;;;;;;6246754;23;19907;-68
2023/01/02 03:35:37;;;;;;;;;;;;;;;;;;6246669;23;19904;-68
2023/01/02 03:38:03;;;;;;;;;;;;;;;;;;6247110;23;19903;-70
2023/01/02 03:40:29;;;;;;;;;;;;;;;;;;6246426;23;19899;-73
2023/01/02 03:42:55;;;;;;;;;;;;;;;;;;6247084;23;19949;-72
2023/01/02 03:45:21;;;;;;;;;;;;;;;;;;6246711;23;19899;-70
2023/01/02 03:47:47;;;;;;;;;;;;;;;;;;6246340;23;19949;-72
2023/01/02 03:50:13;;;;;;;;;;;;;;;;;;6246358;23;20318;-72
2023/01/02 03:52:38;;;;;;;;;;;;;;;;;;6248343;23;19899;-69
2023/01/02 03:55:04;;;;;;;;;;;;;;;;;;6248829;22;20226;-71
2023/01/02 03:57:30;;;;;;;;;;;;;;;;;;6248355;22;19903;-72
2023/01/02 03:59:56;;;;;;;;;;;;;;;;;;6249000;23;19906;-71
2023/01/02 04:02:22;;;;;;;;;;;;;;;;;;6248291;23;19900;-70
2023/01/02 04:04:48;;;;;;;;;;;;;;;;;;6248650;23;19907;-72
2023/01/02 04:07:14;;;;;;;;;;;;;;;;;;6248168;23;19929;-71
2023/01/02 04:09:40;;;;;;;;;;;;;;;;;;6248255;23;19900;-74
2023/01/02 04:12:06;;;;;;;;;;;;;;;;;;6248523;23;19907;-68
2023/01/02 04:14:31;;;;;;;;;;;;;;;;;;6248028;23;19970;-71
2023/01/02 04:16:57;;;;;;;;;;;;;;;;;;6248860;23;19900;-70
2023/01/02 04:19:23;;;;;;;;;;;;;;;;;;6248095;23;19910;-72
2023/01/02 04:21:49;;;;;;;;;;;;;;;;;;6248113;23;19906;-71
2023/01/02 04:24:15;;;;;;;;;;;;;;;;;;6248430;23;19900;-73
2023/01/02 04:26:41;;;;;;;;;;;;;;;;;;6248430;23;20329;-72
2023/01/02 04:29:07;;;;;;;;;;;;;;;;;;6248703;23;19899;-72
2023/01/02 04:31:33;;;;;;;;;;;;;;;;;;6247987;23;19903;-70
2023/01/02 04:33:59;;;;;;;;;;;;;;;;;;6247993;23;19903;-72
2023/01/02 04:36:24;;;;;;;;;;;;;;;;;;6248216;23;19985;-71
2023/01/02 04:38:50;;;;;;;;;;;;;;;;;;6247888;23;19900;-73
2023/01/02 04:41:16;;;;;;;;;;;;;;;;;;6247937;23;20383;-71
2023/01/02 04:43:42;;;;;;;;;;;;;;;;;;6247909;23;19900;-71
2023/01/02 04:46:08;;;;;;;;;;;;;;;;;;6248183;23;19899;-68
2023/01/02 04:48:34;;;;;;;;;;;;;;;;;;6248183;23;19933;-70
2023/01/02 04:51:00;;;;;;;;;;;;;;;;;;6247858;23;19950;-73
2023/01/02 04:53:26;;;;;;;;;;;;;;;;;;6247822;23;19906;-69
2023/01/02 04:55:52;;;;;;;;;;;;;;;;;;6247806;22;19978;-72
2023/01/02 04:58:17;;;;;;;;;;;;;;;;;;6247867;23;19911;-73
2023/01/02 05:00:43;;;;;;;;;;;;;;;;;;6247734;23;19961;-71
2023/01/02 05:03:09;;;;;;;;;;;;;;;;;;6247856;23;20233;-71
2023/01/02 05:05:35;;;;;;;;;;;;;;;;;;6247666;23;19905;-72
2023/01/02 05:08:01;;;;;;;;;;;;;;;;;;6248001;23;19923;-71
2023/01/02 05:10:27;;;;;;;;;;;;;;;;;;6247927;23;19900;-73
2023/01/02 05:12:53;;;;;;;;;;;;;;;;;;6247634;23;19904;-70
2023/01/02 05:15:19;;;;;;;;;;;;;;;;;;6248175;23;20310;-71
2023/01/02 05:17:45;;;;;;;;;;;;;;;;;;6247559;23;19899;-73
2023/01/02 05:20:10;;;;;;;;;;;;;;;;;;6247883;23;19900;-73
2023/01/02 05:25:21;;;;;;;;;;;;;;;;;;6247244;23;19907;-73
2023/01/02 05:27:47;;;;;;;;;;;;;;;;;;6247801;23;19899;-69
2023/01/02 05:30:13;;;;;;;;;;;;;;;;;;6247776;23;19930;-72
2023/01/02 05:32:39;;;;;;;;;;;;;;;;;;6247429;23;19900;-74
2023/01/02 05:35:05;;;;;;;;;;;;;;;;;;6247298;23;19958;-68
2023/01/02 05:37:31;;;;;;;;;;;;;;;;;;6247401;23;19899;-71
2023/01/02 05:39:56;;;;;;;;;;;;;;;;;;6247675;23;19906;-72
2023/01/02 05:42:22;;;;;;;;;;;;;;;;;;6247335;23;20233;-69
2023/01/02 05:44:50;;;;;;;;;;;;;;;;;;6247283;23;19904;-71
2023/01/02 05:47:16;;;;;;;;;;;;;;;;;;6247663;23;19977;-72
2023/01/02 05:49:42;;;;;;;;;;;;;;;;;;6247321;23;19970;-69
2023/01/02 05:52:08;;;;;;;;;;;;;;;;;;6247902;23;20290;-71
2023/01/02 05:54:33;;;;;;;;;;;;;;;;;;6247401;23;19919;-72
2023/01/02 05:56:59;;;;;;;;;;;;;;;;;;6247077;22;19911;-73
2023/01/02 05:59:27;;;;;;;;;;;;;;;;;;6246519;23;19916;-69
2023/01/02 06:01:52;;;;;;;;;;;;;;;;;;6247134;23;19896;-71
2023/01/02 06:04:18;;;;;;;;;;;;;;;;;;6247136;23;19900;-72
2023/01/02 06:06:44;;;;;;;;;;;;;;;;;;6247426;23;20210;-70
2023/01/02 06:09:10;;;;;;;;;;;;;;;;;;6247095;23;19907;-70
2023/01/02 06:11:36;;;;;;;;;;;;;;;;;;6247702;23;19895;-71
2023/01/02 06:14:02;;;;;;;;;;;;;;;;;;6246923;23;19934;-70
2023/01/02 06:16:28;;;;;;;;;;;;;;;;;;6246934;23;19907;-70
2023/01/02 06:18:54;;;;;;;;;;;;;;;;;;6246967;23;20317;-70
2023/01/02 06:21:20;;;;;;;;;;;;;;;;;;6246966;23;19899;-68
2023/01/02 06:23:46;;;;;;;;;;;;;;;;;;6247620;23;20285;-72
2023/01/02 06:26:11;;;;;;;;;;;;;;;;;;6247224;23;19899;-70
2023/01/02 06:28:37;;;;;;;;;;;;;;;;;;6246926;23;19926;-70
2023/01/02 06:31:04;;;;;;;;;;;;;;;;;;6247589;23;19903;-71
2023/01/02 06:33:30;;;;;;;;;;;;;;;;;;6219739;23;19900;-70
2023/01/02 06:35:56;;;;;;;;;;;;;;;;;;6247039;23;19954;-71
2023/01/02 06:38:22;;;;;;;;;;;;;;;;;;6247184;23;20022;-71
2023/01/02 06:40:48;;;;;;;;;;;;;;;;;;6219894;23;20274;-72
2023/01/02 06:43:14;;;;;;;;;;;;;;;;;;6247041;23;19931;-72
2023/01/02 06:45:40;;;;;;;;;;;;;;;;;;6246688;23;19923;-72
2023/01/02 06:48:06;;;;;;;;;;;;;;;;;;6246728;23;19974;-70
2023/01/02 06:50:32;;;;;;;;;;;;;;;;;;6247038;23;19900;-68
2023/01/02 06:52:57;;;;;;;;;;;;;;;;;;6247018;23;20314;-70
2023/01/02 06:55:23;;;;;;;;;;;;;;;;;;6246529;22;19907;-71
2023/01/02 06:57:49;;;;;;;;;;;;;;;;;;6246938;23;20329;-73
2023/01/02 07:00:15;;;;;;;;;;;;;;;;;;6246979;23;19904;-69
2023/01/02 07:02:41;;;;;;;;;;;;;;;;;;6246574;23;19900;-73
2023/01/02 07:05:07;;;;;;;;;;;;;;;;;;6246537;23;19907;-72
2023/01/02 07:07:33;;;;;;;;;;;;;;;;;;6246534;23;19943;-72
2023/01/02 07:09:59;;;;;;;;;;;;;;;;;;6246891;23;19899;-70
2023/01/02 07:12:25;;;;;;;;;;;;;;;;;;6246521;23;19900;-70
2023/01/02 07:14:50;;;;;;;;;;;;;;;;;;6247116;23;19923;-70
2023/01/02 07:17:16;;;;;;;;;;;;;;;;;;6246512;23;19974;-70
2023/01/02 07:19:42;;;;;;;;;;;;;;;;;;6247202;23;20306;-71
2023/01/02 07:22:08;;;;;;;;;;;;;;;;;;6246819;23;19906;-71
2023/01/02 07:24:34;;;;;;;;;;;;;;;;;;6246491;23;19900;-71
2023/01/02 07:27:00;;;;;;;;;;;;;;;;;;6249532;23;19906;-70
2023/01/02 07:29:26;;;;;;;;;;;;;;;;;;6249846;23;19903;-69
2023/01/02 07:31:52;;;;;;;;;;;;;;;;;;6250531;23;20199;-68
2023/01/02 07:34:17;;;;;;;;;;;;;;;;;;6249785;23;19973;-72
2023/01/02 07:36:43;;;;;;;;;;;;;;;;;;6249748;23;19907;-71
2023/01/02 07:39:09;;;;;;;;;;;;;;;;;;6250518;23;19899;-69
2023/01/02 07:41:35;;;;;;;;;;;;;;;;;;6250132;23;19962;-70
2023/01/02 07:44:01;;;;;;;;;;;;;;;;;;6250141;23;19900;-71
2023/01/02 07:46:27;;;;;;;;;;;;;;;;;;6249790;23;19904;-71
2023/01/02 07:48:53;;;;;;;;;;;;;;;;;;6250079;23;19961;-70
2023/01/02 07:51:19;;;;;;;;;;;;;;;;;;6249739;23;19982;-73
2023/01/02 07:53:45;;;;;;;;;;;;;;;;;;6250442;23;19906;-70
2023/01/02 07:56:11;;;;;;;;;;;;;;;;;;6249519;22;19903;-70
2023/01/02 07:58:36;;;;;;;;;;;;;;;;;;6249603;23;19973;-69
2023/01/02 08:01:02;;;;;;;;;;;;;;;;;;6250394;23;19982;-71
2023/01/02 08:03:28;;;;;;;;;;;;;;;;;;6249699;23;19949;-71
2023/01/02 08:05:54;;;;;;;;;;;;;;;;;;6250352;23;19899;-73
2023/01/02 08:08:20;;;;;;;;;;;;;;;;;;6249657;23;19899;-73
2023/01/02 08:10:46;;;;;;;;;;;;;;;;;;6250332;23;20333;-73
2023/01/02 08:13:12;;;;;;;;;;;;;;;;;;6250002;23;19899;-70
2023/01/02 08:15:38;;;;;;;;;;;;;;;;;;6249577;23;19953;-73
2023/01/02 08:18:04;;;;;;;;;;;;;;;;;;6250136;23;20275;-69
2023/01/02 08:20:30;;;;;;;;;;;;;;;;;;6249575;23;19923;-69
2023/01/02 08:22:56;;;;;;;;;;;;;;;;;;6249816;23;19900;-74
2023/01/02 08:25:22;;;;;;;;;;;;;;;;;;6223391;23;19899;-72
2023/01/02 08:27:48;;;;;;;;;;;;;;;;;;6249817;23;19900;-69
2023/01/02 08:30:14;;;;;;;;;;;;;;;;;;6249776;23;20276;-72
2023/01/02 08:32:41;;;;;;;;;;;;;;;;;;6249874;23;20298;-69
2023/01/02 08:35:07;;;;;;;;;;;;;;;;;;6250092;23;19974;-71
2023/01/02 08:37:33;;;;;;;;;;;;;;;;;;6248629;23;20276;-73
2023/01/02 08:39:59;;;;;;;;;;;;;;;;;;6248288;23;19906;-71
2023/01/02 08:42:25;;;;;;;;;;;;;;;;;;6247942;23;19899;-70
2023/01/02 08:44:52;;;;;;;;;;;;;;;;;;6247986;23;19900;-71
2023/01/02 08:47:18;;;;;;;;;;;;;;;;;;6247883;23;19907;-71
2023/01/02 08:49:44;;;;;;;;;;;;;;;;;;6247998;23;20290;-71
2023/01/02 08:52:10;;;;;;;;;;;;;;;;;;6248121;23;19950;-74
2023/01/02 08:54:36;;;;;;;;;;;;;;;;;;6247749;22;19950;-72
2023/01/02 08:57:02;;;;;;;;;;;;;;;;;;6220922;23;19904;-77
2023/01/02 08:59:27;;;;;;;;;;;;;;;;;;6247279;23;20347;-71
2023/01/02 09:01:53;;;;;;;;;;;;;;;;;;6248578;23;20037;-70
2023/01/02 09:04:19;;;;;;;;;;;;;;;;;;6247691;23;19899;-68
2023/01/02 09:06:45;;;;;;;;;;;;;;;;;;6247707;23;19900;-69
2023/01/02 09:09:11;;;;;;;;;;;;;;;;;;6248031;23;19900;-71
2023/01/02 09:11:37;;;;;;;;;;;;;;;;;;6247990;23;20363;-70
2023/01/02 09:14:03;;;;;;;;;;;;;;;;;;6248359;23;19903;-70
2023/01/02 09:16:29;;;;;;;;;;;;;;;;;;6247554;23;19958;-72
2023/01/02 09:18:55;;;;;;;;;;;;;;;;;;6247596;23;20373;-72
2023/01/02 09:21:21;;;;;;;;;;;;;;;;;;6247579;23;19900;-72
2023/01/02 09:23:47;;;;;;;;;;;;;;;;;;6247664;23;19899;-75
2023/01/02 09:26:13;;;;;;;;;;;;;;;;;;6248216;23;19903;-69
2023/01/02 09:28:38;;;;;;;;;;;;;;;;;;6247531;23;19925;-68
2023/01/02 09:31:04;;;;;;;;;;;;;;;;;;6248337;23;20317;-70
2023/01/02 09:33:30;;;;;;;;;;;;;;;;;;6247450;23;20318;-71
2023/01/02 09:35:56;;;;;;;;;;;;;;;;;;6247311;23;19986;-74
2023/01/02 09:38:22;;;;;;;;;;;;;;;;;;6247601;23;20344;-75
2023/01/02 09:40:48;;;;;;;;;;;;;;;;;;6247707;23;19900;-74
2023/01/02 09:43:14;;;;;;;;;;;;;;;;;;6247409;23;20283;-72
2023/01/02 09:45:40;;;;;;;;;;;;;;;;;;6247307;23;19906;-73
2023/01/02 09:48:06;;;;;;;;;;;;;;;;;;6247068;23;19899;-75
2023/01/02 09:50:32;;;;;;;;;;;;;;;;;;6220298;23;19930;-73
2023/01/02 09:52:57;;;;;;;;;;;;;;;;;;6247962;23;19970;-70
2023/01/02 09:55:23;;;;;;;;;;;;;;;;;;6247204;22;19914;-72
2023/01/02 09:57:49;;;;;;;;;;;;;;;;;;6247530;23;19929;-71
2023/01/02 10:00:15;;;;;;;;;;;;;;;;;;6247182;23;19899;-73
2023/01/02 10:02:41;;;;;;;;;;;;;;;;;;6247190;23;20234;-76
2023/01/02 10:05:07;;;;;;;;;;;;;;;;;;6247101;23;19899;-69
2023/01/02 10:07:33;;;;;;;;;;;;;;;;;;6247495;23;19903;-71
2023/01/02 10:09:59;;;;;;;;;;;;;;;;;;6247335;23;20321;-72
2023/01/02 10:12:25;;;;;;;;;;;;;;;;;;6247031;23;19939;-74
2023/01/02 10:14:52;;;;;;;;;;;;;;;;;;6247247;23;19978;-70
2023/01/02 10:17:17;;;;;;;;;;;;;;;;;;6247006;23;19900;-72
2023/01/02 10:19:43;;;;;;;;;;;;;;;;;;6247328;23;19903;-71
2023/01/02 10:22:09;;;;;;;;;;;;;;;;;;6247023;23;20317;-71
2023/01/02 10:24:35;;;;;;;;;;;;;;;;;;6247023;23;19949;-71
2023/01/02 10:27:01;;;;;;;;;;;;;;;;;;6247259;23;19900;-72
2023/01/02 10:29:27;;;;;;;;;;;;;;;;;;6247232;23;19906;-71
2023/01/02 10:31:53;;;;;;;;;;;;;;;;;;6246875;23;19904;-71
2023/01/02 10:34:19;;;;;;;;;;;;;;;;;;6246817;23;19997;-69
2023/01/02 10:36:45;;;;;;;;;;;;;;;;;;6246801;23;19907;-70
2023/01/02 10:39:11;;;;;;;;;;;;;;;;;;6247074;23;19948;-68
2023/01/02 10:41:37;;;;;;;;;;;;;;;;;;6246955;23;19900;-71
2023/01/02 10:44:03;;;;;;;;;;;;;;;;;;6247211;23;19900;-70
2023/01/02 10:46:29;;;;;;;;;;;;;;;;;;6246655;23;19934;-71
2023/01/02 10:48:54;;;;;;;;;;;;;;;;;;6246988;23;19946;-69
2023/01/02 10:51:20;;;;;;;;;;;;;;;;;;6245271;23;19899;-67
2023/01/02 10:53:46;;;;;;;;;;;;;;;;;;6246366;23;19906;-69
2023/01/02 10:56:12;;;;;;;;;;;;;;;;;;6246495;22;19910;-72
2023/01/02 10:58:38;;;;;;;;;;;;;;;;;;6246264;23;20034;-74
2023/01/02 11:01:04;;;;;;;;;;;;;;;;;;6246172;23;19899;-70
2023/01/02 11:03:30;;;;;;;;;;;;;;;;;;6246811;23;19982;-71
2023/01/02 11:05:56;;;;;;;;;;;;;;;;;;6246593;23;19927;-72
2023/01/02 11:08:22;;;;;;;;;;;;;;;;;;6246574;23;19946;-69
2023/01/02 11:10:48;;;;;;;;;;;;;;;;;;6246885;23;19899;-72
2023/01/02 11:13:14;;;;;;;;;;;;;;;;;;6246596;23;19958;-68
2023/01/02 11:15:39;;;;;;;;;;;;;;;;;;6246808;23;19939;-68
2023/01/02 11:18:05;;;;;;;;;;;;;;;;;;6245211;23;19900;-69
2023/01/02 11:20:31;;;;;;;;;;;;;;;;;;6244227;23;19950;-67
2023/01/02 11:22:57;;;;;;;;;;;;;;;;;;6244201;23;19900;-69
2023/01/02 11:25:23;;;;;;;;;;;;;;;;;;6244466;23;20242;-69
2023/01/02 11:27:50;;;;;;;;;;;;;;;;;;6244797;23;19965;-66
2023/01/02 11:30:16;;;;;;;;;;;;;;;;;;6244411;23;19906;-67
2023/01/02 11:32:42;;;;;;;;;;;;;;;;;;6244936;23;19974;-70
2023/01/02 11:35:07;;;;;;;;;;;;;;;;;;6245014;23;20331;-67
2023/01/02 11:37:33;;;;;;;;;;;;;;;;;;6242079;23;20238;-67
2023/01/02 11:39:59;;;;;;;;;;;;;;;;;;6242901;23;19899;-67
2023/01/02 11:45:10;;;;;;;;;;;;;;;;;;6243853;23;20234;-67
2023/01/02 11:47:36;;;;;;;;;;;;;;;;;;6244008;23;20272;-67
2023/01/02 11:50:01;;;;;;;;;;;;;;;;;;6244245;23;19934;-69
2023/01/02 11:52:28;;;;;;;;;;;;;;;;;;6246315;23;19986;-67
2023/01/02 11:54:54;;;;;;;;;;;;;;;;;;6246175;22;19954;-67
2023/01/02 11:57:19;;;;;;;;;;;;;;;;;;6246417;23;20222;-69
2023/01/02 11:59:46;;;;;;;;;;;;;;;;;;6247110;23;19902;-68
2023/01/02 12:02:12;;;;;;;;;;;;;;;;;;6246356;23;20003;-68
2023/01/02 12:04:38;;;;;;;;;;;;;;;;;;6246667;23;19899;-69
2023/01/02 12:07:04;;;;;;;;;;;;;;;;;;6246324;23;19900;-67
2023/01/02 12:09:30;;;;;;;;;;;;;;;;;;6247013;23;20265;-68
2023/01/02 12:11:56;;;;;;;;;;;;;;;;;;6246837;23;19929;-68
2023/01/02 12:14:22;;;;;;;;;;;;;;;;;;6248230;23;19899;-67
2023/01/02 12:16:47;;;;;;;;;;;;;;;;;;6248105;23;20266;-67
2023/01/02 12:19:13;;;;;;;;;;;;;;;;;;6248165;23;19910;-67
2023/01/02 12:21:39;;;;;;;;;;;;;;;;;;6248506;23;19903;-69
2023/01/02 12:24:05;;;;;;;;;;;;;;;;;;6248483;23;19900;-67
2023/01/02 12:26:31;;;;;;;;;;;;;;;;;;6248133;23;19907;-67
2023/01/02 12:28:57;;;;;;;;;;;;;;;;;;6248444;23;19899;-68
2023/01/02 12:31:23;;;;;;;;;;;;;;;;;;6248732;23;19907;-68
2023/01/02 12:33:49;;;;;;;;;;;;;;;;;;6248436;23;19900;-67
2023/01/02 12:36:15;;;;;;;;;;;;;;;;;;6248239;23;19908;-68
2023/01/02 12:38:41;;;;;;;;;;;;;;;;;;6247958;23;19900;-68
2023/01/02 12:41:09;;;;;;;;;;;;;;;;;;6248597;23;20324;-67
2023/01/02 12:43:35;;;;;;;;;;;;;;;;;;6248049;23;19899;-68
2023/01/02 12:46:01;;;;;;;;;;;;;;;;;;6248239;23;19906;-68
2023/01/02 12:48:27;;;;;;;;;;;;;;;;;;6248228;23;19931;-67
2023/01/02 12:50:53;;;;;;;;;;;;;;;;;;6247851;23;20372;-68
2023/01/02 12:53:19;;;;;;;;;;;;;;;;;;6247874;23;20242;-67
2023/01/02 12:55:45;;;;;;;;;;;;;;;;;;6248285;22;19903;-68
2023/01/02 12:58:11;;;;;;;;;;;;;;;;;;6247584;23;19918;-68
2023/01/02 13:00:36;;;;;;;;;;;;;;;;;;6248495;23;19915;-67
2023/01/02 13:03:02;;;;;;;;;;;;;;;;;;6247720;23;19899;-67
2023/01/02 13:05:28;;;;;;;;;;;;;;;;;;6248404;23;20325;-67
2023/01/02 13:07:54;;;;;;;;;;;;;;;;;;6247778;23;19933;-66
2023/01/02 13:10:20;;;;;;;;;;;;;;;;;;6247414;23;20273;-67
2023/01/02 13:12:46;;;;;;;;;;;;;;;;;;6245628;23;19904;-67
2023/01/02 13:15:12;;;;;;;;;;;;;;;;;;6246040;23;19911;-68
2023/01/02 13:17:38;;;;;;;;;;;;;;;;;;6246605;23;19900;-67
2023/01/02 13:20:04;;;;;;;;;;;;;;;;;;6246700;23;19910;-67
2023/01/02 13:22:30;;;;;;;;;;;;;;;;;;6246572;23;19906;-67
2023/01/02 13:24:55;;;;;;;;;;;;;;;;;;6246109;23;19944;-67
2023/01/02 13:27:21;;;;;;;;;;;;;;;;;;6247012;23;19978;-67
2023/01/02 13:29:47;;;;;;;;;;;;;;;;;;6247481;23;20306;-67
2023/01/02 13:32:13;;;;;;;;;;;;;;;;;;6220397;23;20010;-66
2023/01/02 13:34:39;;;;;;;;;;;;;;;;;;6247386;23;20040;-67
2023/01/02 13:37:05;;;;;;;;;;;;;;;;;;6247594;23;19904;-67
2023/01/02 13:39:31;;;;;;;;;;;;;;;;;;6247718;23;19906;-67
2023/01/02 13:42:57;;;;;;;;;;;;;;;;;;6247327;23;20211;-66
2023/01/02 13:44:52;;;;;;;;;;;;;;;;;;6233635;23;19903;-67
2023/01/02 13:47:18;;;;;;;;;;;;;;;;;;6247674;23;19953;-67
2023/01/02 13:49:44;;;;;;;;;;;;;;;;;;6247224;23;19965;-67
2023/01/02 13:52:10;;;;;;;;;;;;;;;;;;6247626;23;19900;-67
2023/01/02 13:54:36;;;;;;;;;;;;;;;;;;6247622;23;19900;-67
2023/01/02 13:57:02;;;;;;;;;;;;;;;;;;6247175;23;19938;-66
2023/01/02 13:59:28;;;;;;;;;;;;;;;;;;6246739;23;19912;-67
2023/01/02 14:01:53;;;;;;;;;;;;;;;;;;6247884;23;20329;-67
2023/01/02 14:04:21;;;;;;;;;;;;;;;;;;6247455;23;19906;-67
2023/01/02 14:06:47;;;;;;;;;;;;;;;;;;6247151;23;20340;-66
2023/01/02 14:09:13;;;;;;;;;;;;;;;;;;6247728;23;19900;-67
2023/01/02 14:11:40;;;;;;;;;;;;;;;;;;6247046;23;19906;-67
2023/01/02 14:14:06;;;;;;;;;;;;;;;;;;6247434;23;20314;-67
2023/01/02 14:16:31;;;;;;;;;;;;;;;;;;6247295;23;19950;-67
2023/01/02 14:18:57;;;;;;;;;;;;;;;;;;6247055;23;19978;-67
2023/01/02 14:21:23;;;;;;;;;;;;;;;;;;6247054;23;19904;-67
2023/01/02 14:23:49;;;;;;;;;;;;;;;;;;6247305;23;19906;-67
2023/01/02 14:26:15;;;;;;;;;;;;;;;;;;6246944;23;20318;-66
2023/01/02 14:28:41;;;;;;;;;;;;;;;;;;6247657;23;19982;-67
2023/01/02 14:31:07;;;;;;;;;;;;;;;;;;6246876;23;19899;-67
2023/01/02 14:33:33;;;;;;;;;;;;;;;;;;6247556;23;20371;-67
2023/01/02 14:35:59;;;;;;;;;;;;;;;;;;6247089;23;19903;-66
2023/01/02 14:38:24;;;;;;;;;;;;;;;;;;6246873;23;20214;-67
2023/01/02 14:40:50;;;;;;;;;;;;;;;;;;6247177;23;20278;-67
2023/01/02 14:43:28;;;;;;;;;;;;;;;;;;6246711;23;19906;-68
2023/01/02 14:45:54;;;;;;;;;;;;;;;;;;6246715;23;19903;-67
2023/01/02 14:48:21;;;;;;;;;;;;;;;;;;6246748;23;19922;-67
2023/01/02 14:50:47;;;;;;;;;;;;;;;;;;6246727;23;19925;-67
2023/01/02 14:53:13;;;;;;;;;;;;;;;;;;6247066;23;19970;-67
2023/01/02 14:55:38;;;;;;;;;;;;;;;;;;6246707;22;19910;-67
2023/01/02 14:58:04;;;;;;;;;;;;;;;;;;6246682;23;19911;-67
2023/01/02 15:00:31;;;;;;;;;;;;;;;;;;6246610;23;19899;-67
2023/01/02 15:02:57;;;;;;;;;;;;;;;;;;6246939;23;19899;-66
2023/01/02 15:05:22;;;;;;;;;;;;;;;;;;6246547;23;19899;-67
2023/01/02 15:07:48;;;;;;;;;;;;;;;;;;6246932;23;19907;-66
2023/01/02 15:10:14;;;;;;;;;;;;;;;;;;6246446;23;19903;-67
2023/01/02 15:15:26;;;;;;;;;;;;;;;;;;6246137;23;19910;-67
2023/01/02 15:17:52;;;;;;;;;;;;;;;;;;6246942;23;19900;-67
2023/01/02 15:20:18;;;;;;;;;;;;;;;;;;6246795;23;20237;-67
2023/01/02 15:22:44;;;;;;;;;;;;;;;;;;6246837;23;19973;-67
2023/01/02 15:25:10;;;;;;;;;;;;;;;;;;6246777;23;19978;-67
2023/01/02 15:27:37;;;;;;;;;;;;;;;;;;6246503;23;19900;-66
2023/01/02 15:30:03;;;;;;;;;;;;;;;;;;6246550;23;19900;-67
2023/01/02 15:32:28;;;;;;;;;;;;;;;;;;6246457;23;19900;-66
2023/01/02 15:34:54;;;;;;;;;;;;;;;;;;6247097;23;20356;-67
2023/01/02 15:37:20;;;;;;;;;;;;;;;;;;6246350;23;20326;-67
2023/01/02 15:39:46;;;;;;;;;;;;;;;;;;6246398;23;19931;-67
2023/01/02 15:45:08;;;;;;;;;;;;;;;;;;6247072;23;20282;-65
2023/01/02 15:45:10;;;;;;;;;;;;;;;;;;6245924;23;19900;-67
2023/01/02 15:47:36;;;;;;;;;;;;;;;;;;6247624;23;20396;-67
2023/01/02 15:50:02;;;;;;;;;;;;;;;;;;6248498;23;19935;-66
2023/01/02 15:52:28;;;;;;;;;;;;;;;;;;6248840;23;19980;-68
2023/01/02 15:54:54;;;;;;;;;;;;;;;;;;6248733;22;19903;-68
2023/01/02 15:57:20;;;;;;;;;;;;;;;;;;6248116;22;19910;-67
2023/01/02 15:59:45;;;;;;;;;;;;;;;;;;6248796;23;20234;-67
2023/01/02 16:02:11;;;;;;;;;;;;;;;;;;6248315;23;19900;-66
2023/01/02 16:04:37;;;;;;;;;;;;;;;;;;6248365;23;19905;-67
2023/01/02 16:07:03;;;;;;;;;;;;;;;;;;6248622;23;19903;-67
2023/01/02 16:09:30;;;;;;;;;;;;;;;;;;6248271;23;20337;-65
2023/01/02 16:11:56;;;;;;;;;;;;;;;;;;6248313;23;19950;-67
2023/01/02 16:14:22;;;;;;;;;;;;;;;;;;6248621;23;19899;-66
2023/01/02 16:16:48;;;;;;;;;;;;;;;;;;6248176;23;20318;-66
2023/01/02 16:19:14;;;;;;;;;;;;;;;;;;6248185;23;19970;-67
2023/01/02 16:21:40;;;;;;;;;;;;;;;;;;6248154;23;19907;-67
2023/01/02 16:24:06;;;;;;;;;;;;;;;;;;6248136;23;19951;-66
2023/01/02 16:26:32;;;;;;;;;;;;;;;;;;6248424;23;19899;-68
2023/01/02 16:28:58;;;;;;;;;;;;;;;;;;6248077;23;20237;-67
2023/01/02 16:31:24;;;;;;;;;;;;;;;;;;6248058;23;19954;-67
2023/01/02 16:33:49;;;;;;;;;;;;;;;;;;6248395;23;20237;-67
2023/01/02 16:36:15;;;;;;;;;;;;;;;;;;6247875;23;19965;-66
2023/01/02 16:38:41;;;;;;;;;;;;;;;;;;6248624;23;19900;-67
2023/01/02 16:41:11;;;;;;;;;;;;;;;;;;6247932;23;19900;-66
2023/01/02 16:43:37;;;;;;;;;;;;;;;;;;6247965;23;19904;-66
2023/01/02 16:46:03;;;;;;;;;;;;;;;;;;6248330;23;19906;-67